sensor_id;sensor_type;location;lat;lon;timestamp;temperature;humidity
5743;DHT22;2896;53.500;10.020;2023-07-09T00:01:41;17.90;99.90
5743;DHT22;2896;53.500;10.020;2023-07-09T00:04:09;17.90;99.90
5743;DHT22;2896;53.500;10.020;2023-07-09T00:06:36;17.80;99.90
5743;DHT22;2896;53.500;10.020;2023-07-09T00:09:03;17.80;99.90
5743;DHT22;2896;53.500;10.020;2023-07-09T00:11:32;17.80;99.90
5743;DHT22;2896;53.500;10.020;2023-07-09T00:13:58;17.80;99.90
5743;DHT22;2896;53.500;10.020;2023-07-09T00:16:25;17.80;99.90
5743;DHT22;2896;53.500;10.020;2023-07-09T00:18:52;17.80;99.90
5743;DHT22;2896;53.500;10.020;2023-07-09T00:21:21;17.70;99.90
5743;DHT22;2896;53.500;10.020;2023-07-09T00:23:48;17.80;99.90
5743;DHT22;2896;53.500;10.020;2023-07-09T00:26:16;17.60;99.90
5743;DHT22;2896;53.500;10.020;2023-07-09T00:28:44;17.60;99.90
5743;DHT22;2896;53.500;10.020;2023-07-09T00:31:12;17.60;99.90
5743;DHT22;2896;53.500;10.020;2023-07-09T00:33:40;17.50;99.90
5743;DHT22;2896;53.500;10.020;2023-07-09T00:36:14;17.50;99.90
5743;DHT22;2896;53.500;10.020;2023-07-09T00:38:41;17.50;99.90
5743;DHT22;2896;53.500;10.020;2023-07-09T00:41:15;17.40;99.90
5743;DHT22;2896;53.500;10.020;2023-07-09T00:43:46;17.40;99.90
5743;DHT22;2896;53.500;10.020;2023-07-09T00:49:28;17.30;99.90
5743;DHT22;2896;53.500;10.020;2023-07-09T00:51:56;17.30;99.90
5743;DHT22;2896;53.500;10.020;2023-07-09T00:54:31;17.30;99.90
5743;DHT22;2896;53.500;10.020;2023-07-09T00:57:00;17.20;99.90
5743;DHT22;2896;53.500;10.020;2023-07-09T00:59:31;17.20;99.90
5743;DHT22;2896;53.500;10.020;2023-07-09T01:01:58;17.20;99.90
5743;DHT22;2896;53.500;10.020;2023-07-09T01:04:27;17.10;99.90
5743;DHT22;2896;53.500;10.020;2023-07-09T01:06:55;17.10;99.90
5743;DHT22;2896;53.500;10.020;2023-07-09T01:09:23;17.00;99.90
5743;DHT22;2896;53.500;10.020;2023-07-09T01:11:50;17.00;99.90
5743;DHT22;2896;53.500;10.020;2023-07-09T01:14:24;17.00;99.90
5743;DHT22;2896;53.500;10.020;2023-07-09T01:16:56;17.00;99.90
5743;DHT22;2896;53.500;10.020;2023-07-09T01:19:27;16.90;99.90
5743;DHT22;2896;53.500;10.020;2023-07-09T01:21:56;16.80;99.90
5743;DHT22;2896;53.500;10.020;2023-07-09T01:24:47;16.80;99.90
5743;DHT22;2896;53.500;10.020;2023-07-09T01:27:14;16.70;99.90
5743;DHT22;2896;53.500;10.020;2023-07-09T01:29:42;16.70;99.90
5743;DHT22;2896;53.500;10.020;2023-07-09T01:32:13;16.70;1.00
5743;DHT22;2896;53.500;10.020;2023-07-09T01:34:39;16.60;1.00
5743;DHT22;2896;53.500;10.020;2023-07-09T01:37:07;16.60;1.00
5743;DHT22;2896;53.500;10.020;2023-07-09T01:39:34;16.60;1.00
5743;DHT22;2896;53.500;10.020;2023-07-09T01:42:01;16.60;99.90
5743;DHT22;2896;53.500;10.020;2023-07-09T01:44:28;16.50;99.90
5743;DHT22;2896;53.500;10.020;2023-07-09T01:46:54;16.50;99.90
5743;DHT22;2896;53.500;10.020;2023-07-09T01:49:21;16.50;99.90
5743;DHT22;2896;53.500;10.020;2023-07-09T01:51:48;16.50;99.90
5743;DHT22;2896;53.500;10.020;2023-07-09T01:54:17;16.40;99.90
5743;DHT22;2896;53.500;10.020;2023-07-09T01:56:43;16.40;99.90
5743;DHT22;2896;53.500;10.020;2023-07-09T01:59:10;16.40;99.90
5743;DHT22;2896;53.500;10.020;2023-07-09T02:01:37;16.40;99.90
5743;DHT22;2896;53.500;10.020;2023-07-09T02:04:04;16.30;99.90
5743;DHT22;2896;53.500;10.020;2023-07-09T02:06:31;16.30;99.90
5743;DHT22;2896;53.500;10.020;2023-07-09T02:08:58;16.30;99.90
5743;DHT22;2896;53.500;10.020;2023-07-09T02:11:26;16.30;1.00
5743;DHT22;2896;53.500;10.020;2023-07-09T02:13:52;16.20;1.00
5743;DHT22;2896;53.500;10.020;2023-07-09T02:16:19;16.20;1.00
5743;DHT22;2896;53.500;10.020;2023-07-09T02:18:46;16.20;1.00
5743;DHT22;2896;53.500;10.020;2023-07-09T02:21:12;16.10;1.00
5743;DHT22;2896;53.500;10.020;2023-07-09T02:23:39;16.10;1.00
5743;DHT22;2896;53.500;10.020;2023-07-09T02:26:05;16.00;1.00
5743;DHT22;2896;53.500;10.020;2023-07-09T02:28:33;16.00;1.00
5743;DHT22;2896;53.500;10.020;2023-07-09T02:31:00;16.00;1.00
5743;DHT22;2896;53.500;10.020;2023-07-09T02:33:27;15.90;1.00
5743;DHT22;2896;53.500;10.020;2023-07-09T02:35:58;15.90;1.00
5743;DHT22;2896;53.500;10.020;2023-07-09T02:38:25;15.80;1.00
5743;DHT22;2896;53.500;10.020;2023-07-09T02:40:51;15.80;1.00
5743;DHT22;2896;53.500;10.020;2023-07-09T02:43:18;15.80;1.00
5743;DHT22;2896;53.500;10.020;2023-07-09T02:45:46;15.80;1.00
5743;DHT22;2896;53.500;10.020;2023-07-09T02:48:13;15.80;1.00
5743;DHT22;2896;53.500;10.020;2023-07-09T02:50:39;15.80;1.00
5743;DHT22;2896;53.500;10.020;2023-07-09T02:53:06;15.70;1.00
5743;DHT22;2896;53.500;10.020;2023-07-09T02:55:33;15.70;1.00
5743;DHT22;2896;53.500;10.020;2023-07-09T02:58:00;15.70;1.00
5743;DHT22;2896;53.500;10.020;2023-07-09T03:00:27;15.70;1.00
5743;DHT22;2896;53.500;10.020;2023-07-09T03:02:55;15.60;1.00
5743;DHT22;2896;53.500;10.020;2023-07-09T03:05:22;15.60;1.00
5743;DHT22;2896;53.500;10.020;2023-07-09T03:07:48;15.60;1.00
5743;DHT22;2896;53.500;10.020;2023-07-09T03:10:15;15.60;1.00
5743;DHT22;2896;53.500;10.020;2023-07-09T03:12:42;15.60;1.00
5743;DHT22;2896;53.500;10.020;2023-07-09T03:15:09;15.60;1.00
5743;DHT22;2896;53.500;10.020;2023-07-09T03:17:36;15.60;1.00
5743;DHT22;2896;53.500;10.020;2023-07-09T03:20:05;15.50;1.00
5743;DHT22;2896;53.500;10.020;2023-07-09T03:22:33;15.50;1.00
5743;DHT22;2896;53.500;10.020;2023-07-09T03:24:59;15.60;1.00
5743;DHT22;2896;53.500;10.020;2023-07-09T03:27:26;15.60;1.00
5743;DHT22;2896;53.500;10.020;2023-07-09T03:29:52;15.60;1.00
5743;DHT22;2896;53.500;10.020;2023-07-09T03:32:19;15.60;1.00
5743;DHT22;2896;53.500;10.020;2023-07-09T03:34:46;15.60;1.00
5743;DHT22;2896;53.500;10.020;2023-07-09T03:37:14;15.60;1.00
5743;DHT22;2896;53.500;10.020;2023-07-09T03:39:40;15.60;1.00
5743;DHT22;2896;53.500;10.020;2023-07-09T03:42:07;15.60;1.00
5743;DHT22;2896;53.500;10.020;2023-07-09T03:44:35;15.60;1.00
5743;DHT22;2896;53.500;10.020;2023-07-09T03:47:01;15.60;1.00
5743;DHT22;2896;53.500;10.020;2023-07-09T03:49:28;15.60;1.00
5743;DHT22;2896;53.500;10.020;2023-07-09T03:51:54;15.60;1.00
5743;DHT22;2896;53.500;10.020;2023-07-09T03:54:23;15.60;1.00
5743;DHT22;2896;53.500;10.020;2023-07-09T03:56:49;15.70;1.00
5743;DHT22;2896;53.500;10.020;2023-07-09T03:59:16;15.70;1.00
5743;DHT22;2896;53.500;10.020;2023-07-09T04:01:42;15.70;1.00
5743;DHT22;2896;53.500;10.020;2023-07-09T04:04:11;15.80;1.00
5743;DHT22;2896;53.500;10.020;2023-07-09T04:06:38;15.80;1.00
5743;DHT22;2896;53.500;10.020;2023-07-09T04:09:04;15.80;1.00
5743;DHT22;2896;53.500;10.020;2023-07-09T04:11:33;15.80;1.00
5743;DHT22;2896;53.500;10.020;2023-07-09T04:13:59;15.80;1.00
5743;DHT22;2896;53.500;10.020;2023-07-09T04:16:26;15.80;1.00
5743;DHT22;2896;53.500;10.020;2023-07-09T04:18:53;15.90;1.00
5743;DHT22;2896;53.500;10.020;2023-07-09T04:21:20;15.80;1.00
5743;DHT22;2896;53.500;10.020;2023-07-09T04:23:46;15.90;1.00
5743;DHT22;2896;53.500;10.020;2023-07-09T04:26:13;15.90;1.00
5743;DHT22;2896;53.500;10.020;2023-07-09T04:28:42;15.90;1.00
5743;DHT22;2896;53.500;10.020;2023-07-09T04:31:09;15.80;1.00
5743;DHT22;2896;53.500;10.020;2023-07-09T04:33:36;15.90;1.00
5743;DHT22;2896;53.500;10.020;2023-07-09T04:36:02;15.90;1.00
5743;DHT22;2896;53.500;10.020;2023-07-09T04:38:32;16.00;1.00
5743;DHT22;2896;53.500;10.020;2023-07-09T04:40:59;16.00;1.00
5743;DHT22;2896;53.500;10.020;2023-07-09T04:43:25;16.00;1.00
5743;DHT22;2896;53.500;10.020;2023-07-09T04:45:53;16.10;1.00
5743;DHT22;2896;53.500;10.020;2023-07-09T04:48:20;16.10;1.00
5743;DHT22;2896;53.500;10.020;2023-07-09T04:50:47;16.20;1.00
5743;DHT22;2896;53.500;10.020;2023-07-09T04:53:15;16.30;1.00
5743;DHT22;2896;53.500;10.020;2023-07-09T04:55:42;16.40;1.00
5743;DHT22;2896;53.500;10.020;2023-07-09T04:58:09;16.50;1.00
5743;DHT22;2896;53.500;10.020;2023-07-09T05:00:35;16.60;99.90
5743;DHT22;2896;53.500;10.020;2023-07-09T05:03:03;16.70;99.90
5743;DHT22;2896;53.500;10.020;2023-07-09T05:05:30;16.80;99.90
5743;DHT22;2896;53.500;10.020;2023-07-09T05:07:57;16.90;99.90
5743;DHT22;2896;53.500;10.020;2023-07-09T05:10:23;17.00;99.90
5743;DHT22;2896;53.500;10.020;2023-07-09T05:12:51;17.10;99.90
5743;DHT22;2896;53.500;10.020;2023-07-09T05:15:22;17.30;99.90
5743;DHT22;2896;53.500;10.020;2023-07-09T05:17:49;17.40;99.90
5743;DHT22;2896;53.500;10.020;2023-07-09T05:20:19;17.50;99.90
5743;DHT22;2896;53.500;10.020;2023-07-09T05:22:46;16.10;99.90
5743;DHT22;2896;53.500;10.020;2023-07-09T05:25:13;17.60;99.90
5743;DHT22;2896;53.500;10.020;2023-07-09T05:27:40;17.70;99.90
5743;DHT22;2896;53.500;10.020;2023-07-09T05:30:07;17.80;99.90
5743;DHT22;2896;53.500;10.020;2023-07-09T05:32:35;17.90;99.90
5743;DHT22;2896;53.500;10.020;2023-07-09T05:35:03;18.00;99.90
5743;DHT22;2896;53.500;10.020;2023-07-09T05:37:31;18.20;99.90
5743;DHT22;2896;53.500;10.020;2023-07-09T05:39:57;18.20;99.90
5743;DHT22;2896;53.500;10.020;2023-07-09T05:42:24;18.40;99.90
5743;DHT22;2896;53.500;10.020;2023-07-09T05:44:51;18.60;99.90
5743;DHT22;2896;53.500;10.020;2023-07-09T05:47:17;18.60;99.90
5743;DHT22;2896;53.500;10.020;2023-07-09T05:49:44;18.80;99.90
5743;DHT22;2896;53.500;10.020;2023-07-09T05:52:14;18.90;99.90
5743;DHT22;2896;53.500;10.020;2023-07-09T05:54:43;18.90;99.90
5743;DHT22;2896;53.500;10.020;2023-07-09T05:57:10;19.10;99.90
5743;DHT22;2896;53.500;10.020;2023-07-09T05:59:37;19.20;99.90
5743;DHT22;2896;53.500;10.020;2023-07-09T06:02:04;19.40;99.90
5743;DHT22;2896;53.500;10.020;2023-07-09T06:04:30;19.50;99.90
5743;DHT22;2896;53.500;10.020;2023-07-09T06:06:57;19.60;99.90
5743;DHT22;2896;53.500;10.020;2023-07-09T06:09:24;19.90;99.90
5743;DHT22;2896;53.500;10.020;2023-07-09T06:11:51;20.00;99.90
5743;DHT22;2896;53.500;10.020;2023-07-09T06:14:18;20.10;99.90
5743;DHT22;2896;53.500;10.020;2023-07-09T06:16:45;20.30;99.90
5743;DHT22;2896;53.500;10.020;2023-07-09T06:19:11;20.30;99.90
5743;DHT22;2896;53.500;10.020;2023-07-09T06:21:38;20.40;99.90
5743;DHT22;2896;53.500;10.020;2023-07-09T06:24:05;20.50;99.90
5743;DHT22;2896;53.500;10.020;2023-07-09T06:26:32;20.70;99.90
5743;DHT22;2896;53.500;10.020;2023-07-09T06:29:00;20.80;99.90
5743;DHT22;2896;53.500;10.020;2023-07-09T06:31:27;20.80;99.90
5743;DHT22;2896;53.500;10.020;2023-07-09T06:33:54;21.00;99.90
5743;DHT22;2896;53.500;10.020;2023-07-09T06:36:21;22.90;99.90
5743;DHT22;2896;53.500;10.020;2023-07-09T06:38:47;21.10;99.90
5743;DHT22;2896;53.500;10.020;2023-07-09T06:41:15;20.60;99.90
5743;DHT22;2896;53.500;10.020;2023-07-09T06:43:42;21.20;99.90
5743;DHT22;2896;53.500;10.020;2023-07-09T06:46:12;21.30;99.90
5743;DHT22;2896;53.500;10.020;2023-07-09T06:48:39;21.40;99.90
5743;DHT22;2896;53.500;10.020;2023-07-09T06:51:06;21.50;99.90
5743;DHT22;2896;53.500;10.020;2023-07-09T06:53:33;21.70;99.90
5743;DHT22;2896;53.500;10.020;2023-07-09T06:55:59;21.80;99.90
5743;DHT22;2896;53.500;10.020;2023-07-09T06:58:27;22.00;99.90
5743;DHT22;2896;53.500;10.020;2023-07-09T07:00:54;22.10;99.90
5743;DHT22;2896;53.500;10.020;2023-07-09T07:03:22;22.30;99.90
5743;DHT22;2896;53.500;10.020;2023-07-09T07:05:51;22.40;99.90
5743;DHT22;2896;53.500;10.020;2023-07-09T07:08:21;22.50;99.90
5743;DHT22;2896;53.500;10.020;2023-07-09T07:10:49;22.70;99.90
5743;DHT22;2896;53.500;10.020;2023-07-09T07:13:16;22.70;99.90
5743;DHT22;2896;53.500;10.020;2023-07-09T07:15:47;22.80;99.90
5743;DHT22;2896;53.500;10.020;2023-07-09T07:18:14;22.90;99.90
5743;DHT22;2896;53.500;10.020;2023-07-09T07:20:42;22.90;99.90
5743;DHT22;2896;53.500;10.020;2023-07-09T07:23:10;23.00;99.90
5743;DHT22;2896;53.500;10.020;2023-07-09T07:25:37;23.20;99.90
5743;DHT22;2896;53.500;10.020;2023-07-09T07:28:03;23.20;99.90
5743;DHT22;2896;53.500;10.020;2023-07-09T07:30:30;23.20;99.90
5743;DHT22;2896;53.500;10.020;2023-07-09T07:32:57;23.40;99.90
5743;DHT22;2896;53.500;10.020;2023-07-09T07:35:23;23.50;99.90
5743;DHT22;2896;53.500;10.020;2023-07-09T07:37:51;23.50;99.90
5743;DHT22;2896;53.500;10.020;2023-07-09T07:40:18;23.60;99.90
5743;DHT22;2896;53.500;10.020;2023-07-09T07:42:44;23.70;99.90
5743;DHT22;2896;53.500;10.020;2023-07-09T07:45:12;23.70;99.90
5743;DHT22;2896;53.500;10.020;2023-07-09T07:47:39;23.90;99.90
5743;DHT22;2896;53.500;10.020;2023-07-09T07:50:07;24.10;99.90
5743;DHT22;2896;53.500;10.020;2023-07-09T07:52:34;24.20;99.90
5743;DHT22;2896;53.500;10.020;2023-07-09T07:55:04;24.30;99.90
5743;DHT22;2896;53.500;10.020;2023-07-09T07:57:31;24.50;99.90
5743;DHT22;2896;53.500;10.020;2023-07-09T07:59:58;24.70;99.90
5743;DHT22;2896;53.500;10.020;2023-07-09T08:02:25;24.70;99.90
5743;DHT22;2896;53.500;10.020;2023-07-09T08:04:52;24.80;99.90
5743;DHT22;2896;53.500;10.020;2023-07-09T08:07:19;25.00;99.90
5743;DHT22;2896;53.500;10.020;2023-07-09T08:09:47;25.20;99.90
5743;DHT22;2896;53.500;10.020;2023-07-09T08:12:15;25.30;99.90
5743;DHT22;2896;53.500;10.020;2023-07-09T08:14:44;25.30;99.90
5743;DHT22;2896;53.500;10.020;2023-07-09T08:17:11;25.40;99.90
5743;DHT22;2896;53.500;10.020;2023-07-09T08:19:45;25.70;99.90
5743;DHT22;2896;53.500;10.020;2023-07-09T08:22:13;25.90;99.90
5743;DHT22;2896;53.500;10.020;2023-07-09T08:24:40;25.90;99.90
5743;DHT22;2896;53.500;10.020;2023-07-09T08:27:07;26.00;99.90
5743;DHT22;2896;53.500;10.020;2023-07-09T08:29:35;26.10;99.90
5743;DHT22;2896;53.500;10.020;2023-07-09T08:32:02;26.30;99.90
5743;DHT22;2896;53.500;10.020;2023-07-09T08:34:29;26.10;99.90
5743;DHT22;2896;53.500;10.020;2023-07-09T08:36:56;26.60;99.90
5743;DHT22;2896;53.500;10.020;2023-07-09T08:39:23;26.80;99.90
5743;DHT22;2896;53.500;10.020;2023-07-09T08:41:54;26.80;99.90
5743;DHT22;2896;53.500;10.020;2023-07-09T08:44:45;27.00;99.90
5743;DHT22;2896;53.500;10.020;2023-07-09T08:47:27;27.30;99.90
5743;DHT22;2896;53.500;10.020;2023-07-09T08:49:58;27.50;99.90
5743;DHT22;2896;53.500;10.020;2023-07-09T08:52:30;27.90;99.90
5743;DHT22;2896;53.500;10.020;2023-07-09T08:55:00;28.10;99.90
5743;DHT22;2896;53.500;10.020;2023-07-09T08:57:34;28.30;99.90
5743;DHT22;2896;53.500;10.020;2023-07-09T09:00:06;28.40;99.90
5743;DHT22;2896;53.500;10.020;2023-07-09T09:02:39;28.30;99.90
5743;DHT22;2896;53.500;10.020;2023-07-09T09:05:10;28.60;99.90
5743;DHT22;2896;53.500;10.020;2023-07-09T09:07:40;28.80;99.90
5743;DHT22;2896;53.500;10.020;2023-07-09T09:10:11;29.00;99.90
5743;DHT22;2896;53.500;10.020;2023-07-09T09:12:43;29.10;99.90
5743;DHT22;2896;53.500;10.020;2023-07-09T09:15:15;28.80;99.90
5743;DHT22;2896;53.500;10.020;2023-07-09T09:17:43;26.70;99.90
5743;DHT22;2896;53.500;10.020;2023-07-09T09:20:15;29.00;99.90
5743;DHT22;2896;53.500;10.020;2023-07-09T09:22:46;29.30;99.90
5743;DHT22;2896;53.500;10.020;2023-07-09T09:25:21;29.60;99.90
5743;DHT22;2896;53.500;10.020;2023-07-09T09:27:49;29.60;99.90
5743;DHT22;2896;53.500;10.020;2023-07-09T09:30:18;29.60;99.90
5743;DHT22;2896;53.500;10.020;2023-07-09T09:32:47;29.70;99.90
5743;DHT22;2896;53.500;10.020;2023-07-09T09:35:17;30.00;99.90
5743;DHT22;2896;53.500;10.020;2023-07-09T09:37:50;29.80;99.90
5743;DHT22;2896;53.500;10.020;2023-07-09T09:40:17;29.90;99.90
5743;DHT22;2896;53.500;10.020;2023-07-09T09:42:47;30.00;99.90
5743;DHT22;2896;53.500;10.020;2023-07-09T09:45:17;30.20;99.90
5743;DHT22;2896;53.500;10.020;2023-07-09T09:47:45;30.50;99.90
5743;DHT22;2896;53.500;10.020;2023-07-09T09:50:13;30.80;99.90
5743;DHT22;2896;53.500;10.020;2023-07-09T09:52:40;30.80;99.90
5743;DHT22;2896;53.500;10.020;2023-07-09T09:55:11;31.00;99.90
5743;DHT22;2896;53.500;10.020;2023-07-09T09:57:39;31.30;99.90
5743;DHT22;2896;53.500;10.020;2023-07-09T10:00:13;31.30;99.90
5743;DHT22;2896;53.500;10.020;2023-07-09T10:02:43;31.50;99.90
5743;DHT22;2896;53.500;10.020;2023-07-09T10:05:12;31.90;99.90
5743;DHT22;2896;53.500;10.020;2023-07-09T10:07:43;31.80;99.90
5743;DHT22;2896;53.500;10.020;2023-07-09T10:10:15;32.00;99.90
5743;DHT22;2896;53.500;10.020;2023-07-09T10:12:49;32.30;99.90
5743;DHT22;2896;53.500;10.020;2023-07-09T10:15:25;32.40;99.90
5743;DHT22;2896;53.500;10.020;2023-07-09T10:17:59;32.40;99.90
5743;DHT22;2896;53.500;10.020;2023-07-09T10:20:33;32.70;99.90
5743;DHT22;2896;53.500;10.020;2023-07-09T10:23:07;32.60;99.90
5743;DHT22;2896;53.500;10.020;2023-07-09T10:25:42;32.80;99.90
5743;DHT22;2896;53.500;10.020;2023-07-09T10:28:35;32.40;99.90
5743;DHT22;2896;53.500;10.020;2023-07-09T10:31:14;32.70;99.90
5743;DHT22;2896;53.500;10.020;2023-07-09T10:33:53;32.80;99.90
5743;DHT22;2896;53.500;10.020;2023-07-09T10:36:36;32.70;99.90
5743;DHT22;2896;53.500;10.020;2023-07-09T10:39:07;32.70;99.90
5743;DHT22;2896;53.500;10.020;2023-07-09T10:41:38;32.80;99.90
5743;DHT22;2896;53.500;10.020;2023-07-09T10:44:10;33.10;99.90
5743;DHT22;2896;53.500;10.020;2023-07-09T10:46:39;33.30;99.90
5743;DHT22;2896;53.500;10.020;2023-07-09T10:49:11;33.40;99.90
5743;DHT22;2896;53.500;10.020;2023-07-09T10:51:41;33.20;99.90
5743;DHT22;2896;53.500;10.020;2023-07-09T10:54:16;33.30;99.90
5743;DHT22;2896;53.500;10.020;2023-07-09T10:56:51;33.80;99.90
5743;DHT22;2896;53.500;10.020;2023-07-09T10:59:22;33.70;99.90
5743;DHT22;2896;53.500;10.020;2023-07-09T11:01:55;33.90;99.90
5743;DHT22;2896;53.500;10.020;2023-07-09T11:04:31;34.10;99.90
5743;DHT22;2896;53.500;10.020;2023-07-09T11:07:01;34.10;99.90
5743;DHT22;2896;53.500;10.020;2023-07-09T11:09:32;34.40;99.90
5743;DHT22;2896;53.500;10.020;2023-07-09T11:12:02;34.70;99.90
5743;DHT22;2896;53.500;10.020;2023-07-09T11:14:32;34.90;99.90
5743;DHT22;2896;53.500;10.020;2023-07-09T11:17:01;34.80;99.90
5743;DHT22;2896;53.500;10.020;2023-07-09T11:19:30;34.90;99.90
5743;DHT22;2896;53.500;10.020;2023-07-09T11:22:03;34.80;99.90
5743;DHT22;2896;53.500;10.020;2023-07-09T11:24:33;34.50;99.90
5743;DHT22;2896;53.500;10.020;2023-07-09T11:27:00;34.90;99.90
5743;DHT22;2896;53.500;10.020;2023-07-09T11:29:28;35.10;99.90
5743;DHT22;2896;53.500;10.020;2023-07-09T11:32:06;35.10;99.90
5743;DHT22;2896;53.500;10.020;2023-07-09T11:34:45;35.20;99.90
5743;DHT22;2896;53.500;10.020;2023-07-09T11:37:12;35.30;99.90
5743;DHT22;2896;53.500;10.020;2023-07-09T11:39:44;35.40;99.90
5743;DHT22;2896;53.500;10.020;2023-07-09T11:42:25;35.60;99.90
5743;DHT22;2896;53.500;10.020;2023-07-09T11:44:57;35.40;99.90
5743;DHT22;2896;53.500;10.020;2023-07-09T11:47:27;35.60;99.90
5743;DHT22;2896;53.500;10.020;2023-07-09T11:49:59;35.70;99.90
5743;DHT22;2896;53.500;10.020;2023-07-09T11:52:28;36.10;99.90
5743;DHT22;2896;53.500;10.020;2023-07-09T11:54:57;36.20;99.90
5743;DHT22;2896;53.500;10.020;2023-07-09T11:57:28;36.00;99.90
5743;DHT22;2896;53.500;10.020;2023-07-09T11:59:59;36.20;99.90
5743;DHT22;2896;53.500;10.020;2023-07-09T12:02:31;36.30;99.90
5743;DHT22;2896;53.500;10.020;2023-07-09T12:05:02;36.30;99.90
5743;DHT22;2896;53.500;10.020;2023-07-09T12:07:30;36.60;99.90
5743;DHT22;2896;53.500;10.020;2023-07-09T12:09:56;36.60;99.90
5743;DHT22;2896;53.500;10.020;2023-07-09T12:12:25;36.70;99.90
5743;DHT22;2896;53.500;10.020;2023-07-09T12:14:51;36.80;99.90
5743;DHT22;2896;53.500;10.020;2023-07-09T12:17:18;36.70;99.90
5743;DHT22;2896;53.500;10.020;2023-07-09T12:19:45;37.00;99.90
5743;DHT22;2896;53.500;10.020;2023-07-09T12:22:17;36.60;99.90
5743;DHT22;2896;53.500;10.020;2023-07-09T12:24:45;36.70;99.90
5743;DHT22;2896;53.500;10.020;2023-07-09T12:27:21;36.70;99.90
5743;DHT22;2896;53.500;10.020;2023-07-09T12:29:50;36.70;99.90
5743;DHT22;2896;53.500;10.020;2023-07-09T12:32:18;36.70;99.90
5743;DHT22;2896;53.500;10.020;2023-07-09T12:34:50;36.70;99.90
5743;DHT22;2896;53.500;10.020;2023-07-09T12:37:20;36.70;99.90
5743;DHT22;2896;53.500;10.020;2023-07-09T12:39:49;36.80;99.90
5743;DHT22;2896;53.500;10.020;2023-07-09T12:42:20;36.40;99.90
5743;DHT22;2896;53.500;10.020;2023-07-09T12:44:49;36.10;99.90
5743;DHT22;2896;53.500;10.020;2023-07-09T12:47:17;36.20;99.90
5743;DHT22;2896;53.500;10.020;2023-07-09T12:49:45;35.90;99.90
5743;DHT22;2896;53.500;10.020;2023-07-09T12:52:16;36.60;99.90
5743;DHT22;2896;53.500;10.020;2023-07-09T12:54:55;37.00;99.90
5743;DHT22;2896;53.500;10.020;2023-07-09T12:57:23;37.40;99.90
5743;DHT22;2896;53.500;10.020;2023-07-09T12:59:50;37.40;99.90
5743;DHT22;2896;53.500;10.020;2023-07-09T13:02:19;37.20;99.90
5743;DHT22;2896;53.500;10.020;2023-07-09T13:04:46;37.50;99.90
5743;DHT22;2896;53.500;10.020;2023-07-09T13:07:29;37.40;99.90
5743;DHT22;2896;53.500;10.020;2023-07-09T13:10:05;36.70;99.90
5743;DHT22;2896;53.500;10.020;2023-07-09T13:12:33;37.40;99.90
5743;DHT22;2896;53.500;10.020;2023-07-09T13:15:01;37.70;99.90
5743;DHT22;2896;53.500;10.020;2023-07-09T13:17:29;37.20;99.90
5743;DHT22;2896;53.500;10.020;2023-07-09T13:19:56;37.00;99.90
5743;DHT22;2896;53.500;10.020;2023-07-09T13:22:24;37.00;99.90
5743;DHT22;2896;53.500;10.020;2023-07-09T13:24:51;37.50;99.90
5743;DHT22;2896;53.500;10.020;2023-07-09T13:27:19;36.40;99.90
5743;DHT22;2896;53.500;10.020;2023-07-09T13:29:46;36.70;99.90
5743;DHT22;2896;53.500;10.020;2023-07-09T13:32:14;37.20;99.90
5743;DHT22;2896;53.500;10.020;2023-07-09T13:34:42;37.60;99.90
5743;DHT22;2896;53.500;10.020;2023-07-09T13:37:11;38.10;99.90
5743;DHT22;2896;53.500;10.020;2023-07-09T13:39:38;37.70;99.90
5743;DHT22;2896;53.500;10.020;2023-07-09T13:42:09;37.70;99.90
5743;DHT22;2896;53.500;10.020;2023-07-09T13:44:39;37.90;99.90
5743;DHT22;2896;53.500;10.020;2023-07-09T13:47:12;38.00;99.90
5743;DHT22;2896;53.500;10.020;2023-07-09T13:49:42;38.10;99.90
5743;DHT22;2896;53.500;10.020;2023-07-09T13:52:14;38.00;99.90
5743;DHT22;2896;53.500;10.020;2023-07-09T13:54:42;37.60;99.90
5743;DHT22;2896;53.500;10.020;2023-07-09T13:57:15;38.20;99.90
5743;DHT22;2896;53.500;10.020;2023-07-09T13:59:44;38.20;99.90
5743;DHT22;2896;53.500;10.020;2023-07-09T14:02:20;38.30;99.90
5743;DHT22;2896;53.500;10.020;2023-07-09T14:04:48;38.30;99.90
5743;DHT22;2896;53.500;10.020;2023-07-09T14:07:27;37.70;99.90
5743;DHT22;2896;53.500;10.020;2023-07-09T14:09:55;37.40;99.90
5743;DHT22;2896;53.500;10.020;2023-07-09T14:12:22;36.20;99.90
5743;DHT22;2896;53.500;10.020;2023-07-09T14:14:51;36.60;99.90
5743;DHT22;2896;53.500;10.020;2023-07-09T14:17:19;36.80;99.90
5743;DHT22;2896;53.500;10.020;2023-07-09T14:19:47;36.90;99.90
5743;DHT22;2896;53.500;10.020;2023-07-09T14:22:22;36.70;99.90
5743;DHT22;2896;53.500;10.020;2023-07-09T14:24:52;37.10;99.90
5743;DHT22;2896;53.500;10.020;2023-07-09T14:27:19;36.70;99.90
5743;DHT22;2896;53.500;10.020;2023-07-09T14:29:46;36.10;99.90
5743;DHT22;2896;53.500;10.020;2023-07-09T14:32:30;36.50;99.90
5743;DHT22;2896;53.500;10.020;2023-07-09T14:34:57;36.90;99.90
5743;DHT22;2896;53.500;10.020;2023-07-09T14:37:24;37.00;99.90
5743;DHT22;2896;53.500;10.020;2023-07-09T14:39:52;37.20;99.90
5743;DHT22;2896;53.500;10.020;2023-07-09T14:42:19;36.70;99.90
5743;DHT22;2896;53.500;10.020;2023-07-09T14:44:47;36.80;99.90
5743;DHT22;2896;53.500;10.020;2023-07-09T14:47:16;37.30;99.90
5743;DHT22;2896;53.500;10.020;2023-07-09T14:49:45;37.40;99.90
5743;DHT22;2896;53.500;10.020;2023-07-09T14:52:12;37.80;99.90
5743;DHT22;2896;53.500;10.020;2023-07-09T14:54:41;37.60;99.90
5743;DHT22;2896;53.500;10.020;2023-07-09T14:57:17;37.60;99.90
5743;DHT22;2896;53.500;10.020;2023-07-09T14:59:43;37.70;99.90
5743;DHT22;2896;53.500;10.020;2023-07-09T15:02:23;38.00;99.90
5743;DHT22;2896;53.500;10.020;2023-07-09T15:04:53;37.30;99.90
5743;DHT22;2896;53.500;10.020;2023-07-09T15:07:20;37.60;99.90
5743;DHT22;2896;53.500;10.020;2023-07-09T15:09:47;37.90;99.90
5743;DHT22;2896;53.500;10.020;2023-07-09T15:12:17;37.60;99.90
5743;DHT22;2896;53.500;10.020;2023-07-09T15:14:45;37.50;99.90
5743;DHT22;2896;53.500;10.020;2023-07-09T15:17:12;37.10;99.90
5743;DHT22;2896;53.500;10.020;2023-07-09T15:19:39;37.00;99.90
5743;DHT22;2896;53.500;10.020;2023-07-09T15:22:16;37.30;99.90
5743;DHT22;2896;53.500;10.020;2023-07-09T15:24:45;37.40;99.90
5743;DHT22;2896;53.500;10.020;2023-07-09T15:27:13;36.70;99.90
5743;DHT22;2896;53.500;10.020;2023-07-09T15:29:40;36.70;99.90
5743;DHT22;2896;53.500;10.020;2023-07-09T15:32:06;35.80;99.90
5743;DHT22;2896;53.500;10.020;2023-07-09T15:34:33;35.70;99.90
5743;DHT22;2896;53.500;10.020;2023-07-09T15:37:00;35.60;99.90
5743;DHT22;2896;53.500;10.020;2023-07-09T15:39:29;35.90;99.90
5743;DHT22;2896;53.500;10.020;2023-07-09T15:41:56;36.30;99.90
5743;DHT22;2896;53.500;10.020;2023-07-09T15:44:22;36.00;99.90
5743;DHT22;2896;53.500;10.020;2023-07-09T15:46:51;35.70;99.90
5743;DHT22;2896;53.500;10.020;2023-07-09T15:49:19;35.20;99.90
5743;DHT22;2896;53.500;10.020;2023-07-09T15:51:46;35.00;99.90
5743;DHT22;2896;53.500;10.020;2023-07-09T15:54:15;34.80;99.90
5743;DHT22;2896;53.500;10.020;2023-07-09T15:56:44;34.90;99.90
5743;DHT22;2896;53.500;10.020;2023-07-09T15:59:21;34.90;99.90
5743;DHT22;2896;53.500;10.020;2023-07-09T16:01:50;34.80;99.90
5743;DHT22;2896;53.500;10.020;2023-07-09T16:04:17;34.20;99.90